Latest Coastal Weather Observations for Maroochydore

IDQ60701

Issued at 1:25 am EST Sunday 24 August 2014 (issued every 10 minutes, with the page automatically refreshed every 10 minutes)

About coastal observations | Map of coastal stations | Coastal observations for QLD | Marine services | Other Formats
Station Details ID: 040861 Name: SUNSHINE COAST AIRPORT Lat: -26.60 Lon: 153.09 Height: 3.3 m
Data from the previous 72 hours. | See also: Recent months at Maroochydore
Date/Time
EST
Temp

°C
Wind Pressure Rain
since 9am
mm
Weather Cloud Vis
km
Sea
Height
m
Swell
Dir
 
Speed
knots
Gust
knots
hPa Trend Height
m
Period
s
Dir
24/01:00am 14.2 SSW 15 21 1021.8 - 36.8 - Partly cloudy 10 - - - -
24/12:30am 14.3 SSW 12 16 1022.2 - 36.8 - Partly cloudy 10 - - - -
24/12:00am 14.4 SSW 13 17 1022.2 - 36.8 - Cloudy 10 - - - -
 
Date/Time
EST
Temp

°C
Wind Pressure Rain
since 9am
mm
Weather Cloud Vis
km
Sea
Height
m
Swell
Dir
 
Speed
knots
Gust
knots
hPa Trend Height
m
Period
s
Dir
23/11:30pm 14.4 S 13 20 1022.6 - 36.8 - Partly cloudy 10 - - - -
23/11:00pm 14.6 SSW 12 16 1022.6 - 36.8 - Partly cloudy 10 - - - -
23/10:30pm 14.4 SSW 14 20 1022.4 - 36.8 - Cloudy 10 - - - -
23/10:00pm 14.4 S 15 21 1022.3 - 36.8 - Cloudy 10 - - - -
23/09:30pm 14.4 SSW 14 19 1022.4 - 36.8 - Cloudy 10 - - - -
23/09:00pm 14.5 SSW 14 19 1022.4 - 36.8 - Cloudy 10 - - - -
23/08:30pm 14.6 S 13 19 1022.5 - 36.6 - Partly cloudy 10 - - - -
23/08:10pm 14.6 S 15 21 1022.5 - 36.6 - Partly cloudy 10 - - - -
23/08:00pm 14.7 S 15 22 1022.6 - 36.6 - Partly cloudy 7 - - - -
23/07:47pm 14.7 S 14 21 1022.8 - 36.2 - Partly cloudy 10 - - - -
23/07:46pm 14.8 S 14 21 1022.8 - 36.2 - Partly cloudy 10 - - - -
23/07:34pm 14.9 S 13 19 1022.6 - 36.0 - Partly cloudy 6 - - - -
23/07:30pm 14.9 S 12 17 1022.6 - 36.0 - Partly cloudy 6 - - - -
23/07:29pm 14.9 S 12 17 1022.6 - 36.0 - Partly cloudy 6 - - - -
23/07:21pm 14.9 S 13 17 1022.6 - 35.4 - Partly cloudy 10 - - - -
23/07:16pm 15.0 S 13 17 1022.5 - 35.4 - Partly cloudy 10 - - - -
23/07:05pm 14.9 S 14 19 1022.4 - 35.4 - Partly cloudy 6 - - - -
23/07:03pm 14.9 S 14 19 1022.3 - 35.2 - Partly cloudy 7 - - - -
23/07:00pm 14.9 S 15 19 1022.4 - 35.2 - Partly cloudy 8 - - - -
23/06:47pm 15.0 S 15 25 1022.2 - 34.8 - Partly cloudy 10 - - - -
23/06:38pm 15.1 S 15 19 1022.0 - 34.6 - Partly cloudy 10 - - - -
23/06:30pm 15.2 S 14 19 1022.0 - 34.6 - Partly cloudy 9 - - - -
23/06:26pm 15.2 S 14 19 1022.0 - 34.6 - Partly cloudy 9 - - - -
23/06:23pm 15.3 S 15 19 1021.9 - 34.6 - Partly cloudy 9 - - - -
23/06:00pm 15.0 S 16 21 1021.8 - 33.6 - Cloudy 5 - - - -
23/05:45pm 15.1 S 13 19 1021.5 - 31.2 - Partly cloudy 6 - - - -
23/05:33pm 15.2 S 13 19 1021.3 - 29.8 - Partly cloudy 8 - - - -
23/05:30pm 15.3 S 14 19 1021.2 - 29.8 - Partly cloudy 9 - - - -
23/05:27pm 15.3 S 14 19 1021.2 - 29.6 - Partly cloudy 9 - - - -
23/05:15pm 15.3 S 13 18 1021.2 - 29.2 - Partly cloudy 6 - - - -
23/05:12pm 15.2 S 14 18 1021.2 - 29.0 - Partly cloudy 7 - - - -
23/05:02pm 15.2 S 13 17 1021.1 - 28.2 - Partly cloudy 6 - - - -
23/05:01pm 15.2 S 13 17 1021.1 - 28.2 - Partly cloudy 7 - - - -
23/05:00pm 15.2 S 13 17 1021.1 - 28.2 - Partly cloudy 7 - - - -
23/04:30pm 15.5 S 15 21 1020.6 - 27.6 - Partly cloudy 10 - - - -
23/04:00pm 15.7 S 15 20 1020.3 - 27.6 - Partly cloudy 10 - - - -
23/03:30pm 15.8 S 16 22 1020.3 - 27.6 - Partly cloudy 10 - - - -
23/03:28pm 15.7 S 16 22 1020.4 - 27.6 - Partly cloudy 10 - - - -
23/03:27pm 15.8 S 16 22 1020.4 - 27.6 - Partly cloudy 10 - - - -
23/03:00pm 16.0 SSE 15 23 1020.3 - 26.2 - Cloudy 5 - - - -
23/02:44pm 15.9 SSE 13 22 1020.3 - 24.2 - Partly cloudy 4 - - - -
23/02:39pm 16.0 S 13 17 1020.4 - 23.0 - Partly cloudy 6 - - - -
23/02:30pm 16.3 S 13 17 1020.4 - 21.8 - Partly cloudy 10 - - - -
23/02:15pm 16.2 S 15 20 1020.3 - 21.6 - Partly cloudy 10 - - - -
23/02:01pm 16.3 S 15 21 1020.3 - 21.4 - Partly cloudy 6 - - - -
23/02:00pm 16.3 S 14 21 1020.3 - 21.4 - Partly cloudy 6 - - - -
23/01:51pm 16.2 S 15 19 1020.4 - 21.0 - Partly cloudy 5 - - - -
23/01:42pm 15.8 S 14 19 1020.5 - 20.6 - Partly cloudy 6 - - - -
23/01:30pm 16.3 S 14 18 1020.4 - 20.2 - Partly cloudy 7 - - - -
23/01:21pm 16.2 SSE 15 21 1020.2 - 20.0 - Partly cloudy 10 - - - -
23/01:00pm 15.9 SSE 13 19 1020.5 - 19.0 - Partly cloudy 5 - - - -
23/12:58pm 15.8 SSE 14 22 1020.6 - 18.8 - Partly cloudy 5 - - - -
23/12:43pm 16.5 S 13 21 1020.7 - 17.4 - Partly cloudy 4 - - - -
23/12:38pm 16.4 S 15 21 1020.6 - 16.4 - Partly cloudy 6 - - - -
23/12:30pm 16.5 S 15 20 1020.5 - 15.8 - Partly cloudy 10 - - - -
23/12:01pm 16.6 S 16 22 1020.4 - 15.4 - Partly cloudy 9 - - - -
23/12:00pm 16.7 S 16 22 1020.4 - 15.4 - Cloudy 9 - - - -
23/11:35am 16.1 S 17 22 1021.1 - 14.8 - Partly cloudy 6 - - - -
23/11:30am 16.0 SSE 18 27 1021.2 - 14.8 - Partly cloudy 6 - - - -
23/11:25am 15.9 SSE 19 27 1021.3 - 14.6 - Partly cloudy 6 - - - -
23/11:21am 16.2 SSE 16 26 1021.4 - 14.4 - Partly cloudy 8 - - - -
23/11:15am 16.6 S 13 19 1021.3 - 14.4 - Partly cloudy 9 - - - -
23/11:00am 16.1 S 14 18 1021.5 - 14.4 - Partly cloudy 6 - - - -
23/10:59am 16.0 S 14 18 1021.5 - 14.4 - Partly cloudy 6 - - - -
23/10:41am 15.6 S 13 18 1021.4 - 13.8 - Partly cloudy 10 - - - -
23/10:30am 15.6 S 16 21 1021.6 - 13.6 - Partly cloudy 5 - - - -
23/10:00am 14.7 S 15 21 1021.6 - 10.2 - Partly cloudy 4 - - - -
23/09:30am 14.4 S 18 26 1021.8 - 5.8 - Partly cloudy 3 - - - -
23/09:00am 14.4 S 17 22 1021.6 - 65.2 - Cloudy 3 - - - -
23/08:47am 14.4 SSW 15 21 1021.6 - 62.4 - Partly cloudy 4 - - - -
23/08:31am 14.2 S 18 25 1021.5 - 59.4 - Partly cloudy 6 - - - -
23/08:30am 14.3 S 18 25 1021.5 - 59.2 - Partly cloudy 7 - - - -
23/08:28am 14.3 S 18 25 1021.4 - 59.0 - Partly cloudy 7 - - - -
23/08:26am 14.3 S 18 25 1021.3 - 58.8 - Partly cloudy 8 - - - -
23/08:14am 14.3 S 18 28 1021.4 - 58.4 - Partly cloudy 6 - - - -
23/08:08am 14.2 SSW 17 28 1021.2 - 58.0 - Partly cloudy 7 - - - -
23/08:00am 14.2 SSW 15 21 1021.1 - 57.6 - Partly cloudy 7 - - - -
23/07:42am 14.1 SSW 18 24 1021.2 - 56.0 - Partly cloudy 6 - - - -
23/07:30am 14.1 SSW 18 25 1021.0 - 55.2 - Partly cloudy 10 - - - -
23/07:24am 14.1 SSW 16 23 1021.0 - 55.0 - Partly cloudy 10 - - - -
23/07:08am 14.0 SSW 16 26 1020.7 - 54.6 - Partly cloudy 7 - - - -
23/07:00am 14.0 SSW 16 25 1020.6 - 54.2 - Partly cloudy 10 - - - -
23/06:30am 14.0 SSW 17 22 1020.6 - 53.0 - Partly cloudy 8 - - - -
23/06:17am 14.1 S 17 25 1020.7 - 52.6 - Partly cloudy 7 - - - -
23/06:00am 14.2 S 16 26 1020.4 - 51.8 - Cloudy 9 - - - -
23/05:59am 14.2 S 16 26 1020.4 - 51.8 - Partly cloudy 9 - - - -
23/05:40am 14.0 SSW 14 19 1020.4 - 51.2 - Partly cloudy 8 - - - -
23/05:30am 14.1 SSW 16 21 1020.3 - 51.0 - Partly cloudy 9 - - - -
23/05:19am 14.1 SSW 16 23 1020.1 - 50.8 - Partly cloudy 9 - - - -
23/05:00am 14.0 S 17 24 1020.1 - 50.2 - Partly cloudy 5 - - - -
23/04:49am 14.1 S 16 22 1020.0 - 49.2 - Partly cloudy 6 - - - -
23/04:43am 14.1 SSW 16 22 1019.9 - 48.8 - Partly cloudy 8 - - - -
23/04:30am 13.9 S 17 24 1019.8 - 48.2 - Partly cloudy 5 - - - -
23/04:22am 14.0 S 19 25 1019.8 - 47.6 - Partly cloudy 6 - - - -
23/04:03am 14.1 S 20 30 1019.6 - 46.6 - Partly cloudy 10 - - - -
23/04:00am 14.1 S 21 30 1019.7 - 46.4 - Partly cloudy 8 - - - -
23/03:57am 14.2 S 21 30 1019.8 - 46.4 - Partly cloudy 8 - - - -
23/03:46am 14.3 S 20 28 1019.9 - 45.8 - Partly cloudy 6 - - - -
23/03:30am 14.3 S 19 24 1019.9 - 45.0 - Partly cloudy 10 - - - -
23/03:00am 14.2 S 19 25 1020.3 - 44.0 - Cloudy 10 - - - -
23/02:30am 14.3 S 18 23 1020.8 - 43.2 - Partly cloudy 10 - - - -
23/02:00am 14.3 SSW 15 19 1021.5 - 41.4 - Partly cloudy 10 - - - -
23/01:30am 14.2 SSW 13 17 1021.8 - 40.0 - Partly cloudy 8 - - - -
23/01:17am 14.3 SSW 14 19 1022.0 - 39.0 - Partly cloudy 7 - - - -
23/01:00am 14.4 SSW 13 19 1022.2 - 37.6 - Partly cloudy 10 - - - -
23/12:59am 14.4 SSW 13 19 1022.3 - 37.6 - Partly cloudy 10 - - - -
23/12:30am 14.3 SSW 15 24 1022.3 - 37.0 - Partly cloudy 10 - - - -
23/12:00am 14.3 SSW 15 21 1022.3 - 36.2 - Cloudy 9 - - - -
 
Date/Time
EST
Temp

°C
Wind Pressure Rain
since 9am
mm
Weather Cloud Vis
km
Sea
Height
m
Swell
Dir
 
Speed
knots
Gust
knots
hPa Trend Height
m
Period
s
Dir
22/11:51pm 14.3 SSW 14 21 1022.4 - 35.8 - Partly cloudy 10 - - - -
22/11:30pm 14.2 SSW 11 16 1022.8 - 34.6 - Partly cloudy 10 - - - -
22/11:00pm 14.3 SSW 11 17 1022.7 - 33.4 - Partly cloudy 10 - - - -
22/10:55pm 14.3 SSW 11 17 1022.7 - 33.2 - Partly cloudy 10 - - - -
22/10:53pm 14.3 SSW 11 17 1022.7 - 33.2 - Partly cloudy 10 - - - -
22/10:33pm 14.3 SSW 13 18 1022.8 - 32.4 - Partly cloudy 6 - - - -
22/10:30pm 14.3 SSW 12 18 1022.8 - 32.2 - Partly cloudy 9 - - - -
22/10:00pm 14.3 SSW 14 18 1023.0 - 31.6 - Partly cloudy 10 - - - -
22/09:30pm 14.3 SSW 13 17 1023.5 - 31.2 - Partly cloudy 9 - - - -
22/09:00pm 14.5 S 12 18 1023.7 - 30.2 - Cloudy 10 - - - -
22/08:30pm 14.6 S 13 18 1023.6 - 30.2 - Partly cloudy 10 - - - -
22/08:00pm 14.8 S 13 19 1023.5 - 29.6 - Partly cloudy 10 - - - -
22/07:30pm 15.2 S 13 17 1023.2 - 29.2 - Partly cloudy 10 - - - -
22/07:11pm 15.3 SSW 11 17 1023.3 - 28.6 - Partly cloudy 10 - - - -
22/07:00pm 15.2 S 11 14 1023.3 - 28.2 - Partly cloudy 5 - - - -
22/06:55pm 15.3 S 10 14 1023.5 - 27.8 - Partly cloudy 6 - - - -
22/06:30pm 15.3 SSW 12 15 1023.0 - 26.2 - Partly cloudy 10 - - - -
22/06:00pm 15.4 S 10 14 1022.5 - 26.0 - Cloudy 10 - - - -
22/05:30pm 15.5 S 13 16 1022.6 - 25.8 - Partly cloudy 10 - - - -
22/05:00pm 15.8 S 11 14 1022.8 - 25.4 - Partly cloudy 10 - - - -
22/04:30pm 16.0 S 10 13 1022.4 - 25.0 - Partly cloudy 10 - - - -
22/04:28pm 16.0 S 9 13 1022.3 - 25.0 - Partly cloudy 10 - - - -
22/04:26pm 16.0 S 9 13 1022.2 - 24.8 - Partly cloudy 10 - - - -
22/04:00pm 15.8 S 8 12 1022.2 - 22.4 - Partly cloudy 2 - - - -
22/03:52pm 15.8 SE 8 12 1022.0 - 20.8 - Partly cloudy 2 - - - -
22/03:50pm 15.9 SE 9 12 1022.2 - 20.0 - Partly cloudy 4 - - - -
22/03:39pm 16.1 S 11 15 1021.8 - 17.4 - Partly cloudy 10 - - - -
22/03:30pm 16.1 S 8 11 1021.9 - 17.0 - Partly cloudy 8 - - - -
22/03:00pm 15.8 S 4 6 1022.1 - 13.4 - Cloudy 6 - - - -
22/02:57pm 15.8 S 4 6 1022.1 - 13.0 - Partly cloudy 6 - - - -
22/02:38pm 15.7 S 8 11 1022.2 - 12.0 - Partly cloudy 8 - - - -
22/02:30pm 15.7 SSE 8 11 1022.2 - 11.6 - Partly cloudy 7 - - - -
22/02:28pm 15.7 SSE 8 11 1022.2 - 11.6 - Partly cloudy 6 - - - -
22/02:26pm 15.8 SSE 8 11 1022.3 - 11.6 - Partly cloudy 6 - - - -
22/02:02pm 15.6 SE 12 16 1022.4 - 10.4 - Partly cloudy 8 - - - -
22/02:00pm 15.7 SE 12 14 1022.4 - 10.4 - Partly cloudy 8 - - - -
22/01:42pm 15.7 S 9 11 1022.7 - 9.6 - Partly cloudy 8 - - - -
22/01:38pm 15.7 S 9 12 1022.7 - 9.2 - Partly cloudy 9 - - - -
22/01:30pm 15.8 SSE 9 16 1022.9 - 8.8 - Partly cloudy 7 - - - -
22/01:00pm 15.8 SSE 5 7 1023.3 - 7.4 - Partly cloudy 10 - - - -
22/12:45pm 16.0 S 8 11 1023.3 - 6.8 - Partly cloudy 10 - - - -
22/12:30pm 16.4 S 8 11 1023.2 - 6.4 - Partly cloudy 10 - - - -
22/12:00pm 16.3 S 9 13 1023.9 - 6.0 - Cloudy 10 - - - -
22/11:30am 16.8 SE 12 16 1024.3 - 5.4 - Partly cloudy 10 - - - -
22/11:00am 16.8 SE 12 19 1024.7 - 5.4 - Partly cloudy 10 - - - -
22/10:30am 16.7 SE 16 20 1025.0 - 5.0 - Partly cloudy 10 - - - -
22/10:20am 16.3 SE 16 21 1025.2 - 5.0 - Partly cloudy 10 - - - -
22/10:00am 15.2 S 11 15 1025.3 - 4.6 - Partly cloudy 10 - - - -
22/09:56am 15.2 S 13 16 1025.4 - 4.4 - Partly cloudy 10 - - - -
22/09:50am 15.2 S 14 20 1025.3 - 4.2 - Partly cloudy 10 - - - -
22/09:30am 15.0 S 8 11 1025.4 - 2.8 - Partly cloudy 4 - - - -
22/09:28am 15.1 S 8 11 1025.3 - 2.2 - Partly cloudy 5 - - - -
22/09:00am 15.1 SSW 10 14 1025.0 - 18.8 - Cloudy 10 - - - -
22/08:30am 15.2 SSW 8 10 1025.0 - 18.2 - Partly cloudy 10 - - - -
22/08:00am 15.7 S 11 15 1024.6 - 18.0 - Partly cloudy 10 - - - -
22/07:30am 15.5 S 9 15 1024.0 - 18.0 - Partly cloudy 10 - - - -
22/07:00am 16.6 SSE 13 21 1023.8 - 18.0 - Partly cloudy 10 - - - -
22/06:40am 16.5 SE 17 22 1023.6 - 18.0 - Partly cloudy 10 - - - -
22/06:30am 16.1 SE 18 23 1023.7 - 18.0 - Partly cloudy 10 - - - -
22/06:13am 13.9 S 11 15 1023.6 - 17.6 - Partly cloudy 10 - - - -
22/06:09am 13.8 S 12 16 1023.6 - 17.2 - Partly cloudy 10 - - - -
22/06:01am 13.7 S 13 16 1023.4 - 17.0 - Partly cloudy 6 - - - -
22/06:00am 13.7 S 13 16 1023.3 - 17.0 - Cloudy 7 - - - -
22/05:30am 13.8 S 14 18 1023.0 - 14.4 - Partly cloudy 10 - - - -
22/05:17am 13.9 S 15 19 1022.9 - 14.2 - Partly cloudy 10 - - - -
22/05:00am 13.7 S 13 17 1022.7 - 13.8 - Partly cloudy 4 - - - -
22/04:55am 13.8 S 12 16 1022.7 - 12.8 - Partly cloudy 6 - - - -
22/04:53am 13.9 S 12 16 1022.8 - 12.4 - Partly cloudy 7 - - - -
22/04:35am 14.1 S 11 17 1022.7 - 11.2 - Partly cloudy 6 - - - -
22/04:30am 14.2 SSW 11 17 1022.6 - 10.0 - Partly cloudy 10 - - - -
22/04:11am 14.1 SSW 13 18 1022.4 - 10.0 - Partly cloudy 10 - - - -
22/04:00am 14.2 SSW 13 19 1022.1 - 10.0 - Partly cloudy 5 - - - -
22/03:52am 14.1 S 13 17 1022.3 - 9.2 - Partly cloudy 6 - - - -
22/03:30am 14.3 S 10 13 1022.3 - 7.8 - Partly cloudy 10 - - - -
22/03:00am 14.5 SSW 14 20 1022.4 - 7.8 - Cloudy 10 - - - -
22/02:30am 15.2 S 13 19 1022.8 - 7.2 - Partly cloudy 10 - - - -
22/02:00am 15.3 S 11 15 1023.1 - 7.2 - Partly cloudy 10 - - - -
22/01:30am 15.2 S 13 16 1022.9 - 7.2 - Partly cloudy 10 - - - -
22/01:00am 15.3 SSW 14 19 1022.8 - 7.2 - Partly cloudy 10 - - - -
22/12:30am 15.3 SSW 11 16 1023.1 - 7.2 - Partly cloudy 10 - - - -
22/12:00am 15.7 SSW 12 17 1023.2 - 7.2 - Cloudy 10 - - - -
 
Date/Time
EST
Temp

°C
Wind Pressure Rain
since 9am
mm
Weather Cloud Vis
km
Sea
Height
m
Swell
Dir
 
Speed
knots
Gust
knots
hPa Trend Height
m
Period
s
Dir
21/11:30pm 16.2 S 17 27 1023.1 - 7.2 - Partly cloudy 10 - - - -
21/11:24pm 16.3 SSE 17 27 1023.0 - 7.2 - Partly cloudy 10 - - - -
21/11:00pm 16.2 SSE 18 25 1023.1 - 7.2 - Partly cloudy 10 - - - -
21/10:52pm 16.3 S 15 25 1023.1 - 7.2 - Partly cloudy 10 - - - -
21/10:33pm 15.4 S 14 20 1023.2 - 7.0 - Partly cloudy 10 - - - -
21/10:30pm 15.4 S 15 22 1023.2 - 7.0 - Partly cloudy 10 - - - -
21/10:12pm 15.7 SSE 19 29 1023.2 - 6.0 - Partly cloudy 6 - - - -
21/10:10pm 15.7 SSE 19 29 1023.2 - 6.0 - Partly cloudy 7 - - - -
21/10:00pm 16.1 SSE 19 26 1023.2 - 5.2 - Partly cloudy 10 - - - -
21/09:48pm 15.7 S 17 23 1023.2 - 5.0 - Partly cloudy 9 - - - -
21/09:40pm 15.7 S 17 24 1023.0 - 4.8 - Partly cloudy 7 - - - -
21/09:30pm 15.6 SSE 21 32 1023.1 - 4.4 - Partly cloudy 3 - - - -
21/09:24pm 15.7 SSE 19 32 1023.2 - 3.8 - Partly cloudy 5 - - - -
21/09:19pm 16.1 SSE 17 27 1023.2 - 3.2 - Partly cloudy 6 - - - -
21/09:02pm 16.0 S 16 25 1023.2 - 1.4 - Partly cloudy 6 - - - -
21/09:01pm 16.2 S 15 25 1023.2 - 1.2 - Partly cloudy 7 - - - -
21/09:00pm 16.3 S 14 23 1023.2 - 0.8 - Cloudy 8 - - - -
21/08:40pm 16.5 S 12 16 1022.9 - 0.0 - Partly cloudy 10 - - - -
21/08:30pm 16.4 S 12 16 1022.8 - 0.0 - Partly cloudy 10 - - - -
21/08:22pm 16.4 S 12 16 1022.8 - 0.0 - Partly cloudy 10 - - - -
21/08:00pm 16.5 S 11 14 1022.9 - 0.0 - Partly cloudy 10 - - - -
21/07:30pm 16.5 S 12 19 1022.3 - 0.0 - Partly cloudy 10 - - - -
21/07:00pm 16.7 S 14 19 1022.3 - 0.0 - Partly cloudy 10 - - - -
21/06:30pm 17.1 S 16 22 1022.0 - 0.0 - Partly cloudy 10 - - - -
21/06:00pm 17.4 S 17 24 1021.7 - 0.0 - Cloudy 10 - - - -
21/05:41pm 17.8 SSE 15 25 1021.5 - 0.0 - Partly cloudy 10 - - - -
21/05:30pm 17.9 S 14 21 1021.5 - 0.0 - Partly cloudy 10 - - - -
21/05:01pm 18.1 S 16 26 1021.2 - 0.0 - Partly cloudy 10 - - - -
21/05:00pm 18.1 S 17 26 1021.2 - 0.0 - Partly cloudy 10 - - - -
21/04:30pm 18.1 S 18 24 1020.9 - 0.0 - Partly cloudy 10 - - - -
21/04:02pm 18.6 SSE 19 30 1020.6 - 0.0 - Partly cloudy 10 - - - -
21/04:00pm 18.6 SSE 19 27 1020.5 - 0.0 - Partly cloudy 10 - - - -
21/03:42pm 19.7 SSE 17 27 1020.3 - 0.0 - Partly cloudy 10 - - - -
21/03:30pm 18.8 SSE 18 25 1020.3 - 0.0 - Partly cloudy 10 - - - -
21/03:00pm 19.1 SSE 21 28 1020.1 - 0.0 - Cloudy 10 - - - -
21/02:30pm 20.3 SSE 20 30 1020.4 - 0.0 - Partly cloudy 10 - - - -
21/02:09pm 20.5 SSE 18 28 1020.5 - 0.0 - Partly cloudy 10 - - - -
21/02:00pm 20.6 SSE 18 24 1020.5 - 0.0 - Partly cloudy 10 - - - -
21/01:42pm 20.6 SSE 18 28 1020.6 - 0.0 - Partly cloudy 10 - - - -
21/01:30pm 19.9 SSE 17 26 1021.0 - 0.0 - Partly cloudy 10 - - - -
21/01:24pm 19.5 SSE 17 27 1021.0 - 0.0 - Partly cloudy 10 - - - -
21/01:00pm 19.9 S 20 27 1021.0 - 0.0 - Partly cloudy 10 - - - -
21/12:49pm 20.4 SSE 17 27 1021.0 - 0.0 - Cloudy 10 - - - -
21/12:30pm 20.2 SSE 19 25 1021.5 - 0.0 - Partly cloudy 10 - - - -
21/12:00pm 20.1 SSE 19 24 1022.1 - 0.0 - Cloudy 10 - - - -
21/11:36am 20.5 SSE 18 28 1022.2 - 0.0 - Partly cloudy 10 - - - -
21/11:30am 20.3 SSE 17 23 1022.2 - 0.0 - Partly cloudy 10 - - - -
21/11:00am 20.3 S 18 24 1022.7 - 0.0 - Cloudy 10 - - - -
21/10:30am 19.0 S 15 20 1022.9 - 0.0 - Cloudy 10 - - - -
21/10:00am 18.3 S 15 23 1023.0 - 0.0 - Cloudy 10 - - - -
21/09:30am 17.7 S 14 20 1023.0 - 0.0 - Cloudy 10 - - - -
21/09:00am 17.4 S 14 21 1023.1 - 0.0 - Cloudy 10 - - - -
21/08:30am 17.0 S 14 19 1023.2 - 0.0 - Partly cloudy 10 - - - -
21/08:00am 16.6 S 12 18 1022.9 - 0.0 - Partly cloudy 10 - - - -
21/07:30am 15.7 S 12 17 1022.5 - 0.0 - Partly cloudy 10 - - - -
21/07:00am 14.5 S 10 16 1022.2 - 0.0 - Partly cloudy 10 - - - -
21/06:30am 14.1 SSW 9 13 1021.9 - 0.0 - Partly cloudy 10 - - - -
21/06:00am 14.4 SSW 9 13 1021.5 - 0.0 - Cloudy 10 - - - -
21/05:30am 14.7 S 13 16 1021.0 - 0.0 - Partly cloudy 10 - - - -
21/05:00am 14.7 S 13 18 1020.7 - 0.0 - - 10 - - - -
21/04:30am 14.6 S 13 16 1020.7 - 0.0 - - 10 - - - -
21/04:00am 14.9 S 12 16 1020.7 - 0.0 - - 10 - - - -
21/03:30am 14.8 S 12 17 1020.6 - 0.0 - - 10 - - - -
21/03:00am 14.8 S 11 15 1020.8 - 0.0 - - 10 - - - -
21/02:30am 14.8 SSW 9 13 1020.9 - 0.0 - - 10 - - - -
21/02:00am 15.0 S 10 14 1021.1 - 0.0 - - 10 - - - -
21/01:30am 15.2 SSW 10 13 1021.4 - 0.0 - Partly cloudy 10 - - - -

Other Formats:

Comma delimited format used in spreadsheet applications
http://www.bom.gov.au/fwo/IDQ60701/IDQ60701.94569.axf

JavaScript Object Notation format (JSON) in row-major order
http://www.bom.gov.au/fwo/IDQ60701/IDQ60701.94569.json